createdAt,value
2022-11-26T00:02:01.168Z,7.40
2022-11-26T00:04:30.038Z,7.40
2022-11-26T00:06:59.904Z,7.40
2022-11-26T00:09:28.110Z,7.40
2022-11-26T00:11:56.333Z,7.40
2022-11-26T00:14:24.538Z,7.30
2022-11-26T00:16:54.427Z,7.30
2022-11-26T00:19:22.709Z,7.30
2022-11-26T00:21:50.948Z,7.30
2022-11-26T00:24:28.602Z,7.30
2022-11-26T00:26:58.920Z,7.40
2022-11-26T00:29:27.336Z,7.30
2022-11-26T00:31:56.952Z,7.30
2022-11-26T00:34:25.215Z,7.20
2022-11-26T00:36:53.679Z,7.20
2022-11-26T00:39:25.368Z,7.30
2022-11-26T00:41:54.403Z,7.30
2022-11-26T00:44:25.205Z,7.20
2022-11-26T00:46:53.884Z,7.20
2022-11-26T00:49:24.160Z,7.20
2022-11-26T00:51:52.468Z,7.20
2022-11-26T00:54:21.361Z,7.30
2022-11-26T00:56:50.841Z,7.20
2022-11-26T00:59:21.941Z,7.20
2022-11-26T01:01:50.775Z,7.20
2022-11-26T01:04:19.114Z,7.10
2022-11-26T01:06:48.778Z,7.00
2022-11-26T01:09:20.195Z,7.00
2022-11-26T01:11:53.775Z,6.90
2022-11-26T01:14:24.247Z,6.80
2022-11-26T01:16:54.256Z,6.80
2022-11-26T01:19:22.728Z,6.80
2022-11-26T01:21:53.038Z,6.80
2022-11-26T01:24:21.188Z,6.80
2022-11-26T01:26:49.408Z,6.90
2022-11-26T01:29:19.019Z,6.80
2022-11-26T01:31:47.642Z,6.90
2022-11-26T01:34:16.192Z,6.90
2022-11-26T01:36:44.689Z,6.90
2022-11-26T01:39:17.935Z,6.80
2022-11-26T01:41:50.267Z,6.80
2022-11-26T01:44:20.918Z,6.80
2022-11-26T01:46:50.402Z,6.80
2022-11-26T01:49:22.461Z,6.70
2022-11-26T01:51:56.063Z,6.80
2022-11-26T01:54:26.078Z,6.80
2022-11-26T01:56:57.242Z,6.90
2022-11-26T01:59:29.638Z,6.90
2022-11-26T02:02:00.343Z,6.90
2022-11-26T02:04:31.521Z,6.80
2022-11-26T02:07:00.555Z,6.80
2022-11-26T02:09:31.530Z,6.80
2022-11-26T02:11:59.842Z,6.80
2022-11-26T02:14:31.148Z,6.80
2022-11-26T02:17:18.403Z,6.80
2022-11-26T02:20:27.387Z,6.90
2022-11-26T02:23:18.813Z,6.90
2022-11-26T02:26:16.383Z,6.90
2022-11-26T02:29:01.468Z,6.90
2022-11-26T02:31:36.599Z,6.80
2022-11-26T02:34:14.421Z,6.80
2022-11-26T02:36:50.663Z,6.80
2022-11-26T02:39:21.648Z,6.70
2022-11-26T02:41:52.510Z,6.60
2022-11-26T02:44:25.025Z,6.60
2022-11-26T02:46:59.245Z,6.50
2022-11-26T02:49:29.306Z,6.40
2022-11-26T02:52:01.309Z,6.30
2022-11-26T02:54:33.175Z,6.20
2022-11-26T02:57:04.637Z,6.20
2022-11-26T02:59:33.403Z,6.10
2022-11-26T03:02:10.806Z,6.10
2022-11-26T03:04:43.869Z,6.00
2022-11-26T03:07:14.890Z,5.90
2022-11-26T03:09:51.167Z,5.90
2022-11-26T03:12:19.781Z,5.80
2022-11-26T03:14:48.054Z,5.80
2022-11-26T03:17:18.297Z,5.70
2022-11-26T03:19:47.553Z,5.70
2022-11-26T03:22:16.575Z,5.60
2022-11-26T03:24:44.950Z,5.60
2022-11-26T03:27:13.186Z,5.60
2022-11-26T03:29:41.388Z,5.50
2022-11-26T03:32:09.679Z,5.50
2022-11-26T03:34:39.578Z,5.40
2022-11-26T03:37:08.712Z,5.40
2022-11-26T03:39:36.911Z,5.40
2022-11-26T03:42:05.335Z,5.40
2022-11-26T03:44:33.886Z,5.30
2022-11-26T03:47:02.116Z,5.30
2022-11-26T03:49:30.301Z,5.30
2022-11-26T03:51:59.853Z,5.20
2022-11-26T03:54:28.152Z,5.20
2022-11-26T03:56:56.332Z,5.10
2022-11-26T03:59:24.612Z,5.10
2022-11-26T04:01:52.901Z,5.10
2022-11-26T04:04:21.150Z,5.10
2022-11-26T04:06:49.406Z,5.00
2022-11-26T04:09:19.159Z,5.00
2022-11-26T04:11:48.608Z,5.00
2022-11-26T04:14:16.797Z,5.00
2022-11-26T04:16:45.080Z,4.90
2022-11-26T04:19:13.363Z,4.80
2022-11-26T04:21:41.555Z,4.80
2022-11-26T04:24:09.978Z,4.80
2022-11-26T04:26:39.614Z,4.80
2022-11-26T04:29:07.812Z,4.70
2022-11-26T04:31:36.136Z,4.70
2022-11-26T04:34:04.497Z,4.70
2022-11-26T04:36:32.684Z,4.60
2022-11-26T04:39:00.922Z,4.60
2022-11-26T04:41:29.948Z,4.60
2022-11-26T04:43:59.595Z,4.60
2022-11-26T04:46:27.753Z,4.60
2022-11-26T04:48:56.056Z,4.60
2022-11-26T04:51:24.293Z,4.50
2022-11-26T04:53:55.733Z,4.50
2022-11-26T04:56:24.498Z,4.50
2022-11-26T04:58:52.853Z,4.50
2022-11-26T05:01:22.751Z,4.40
2022-11-26T05:03:51.178Z,4.40
2022-11-26T05:06:19.461Z,4.40
2022-11-26T05:08:47.730Z,4.40
2022-11-26T05:11:15.906Z,4.40
2022-11-26T05:13:44.271Z,4.40
2022-11-26T05:16:12.498Z,4.40
2022-11-26T05:18:42.211Z,4.40
2022-11-26T05:21:10.444Z,4.50
2022-11-26T05:23:38.709Z,4.40
2022-11-26T05:26:07.266Z,4.40
2022-11-26T05:28:35.448Z,4.40
2022-11-26T05:31:04.938Z,4.50
2022-11-26T05:33:33.131Z,4.40
2022-11-26T05:36:02.904Z,4.50
2022-11-26T05:38:31.137Z,4.50
2022-11-26T05:40:59.353Z,4.70
2022-11-26T05:43:27.578Z,4.60
2022-11-26T05:45:55.863Z,4.50
2022-11-26T05:48:24.077Z,4.40
2022-11-26T05:50:58.855Z,4.40
2022-11-26T05:53:28.813Z,4.40
2022-11-26T05:55:57.071Z,4.40
2022-11-26T05:58:25.322Z,4.40
2022-11-26T06:00:53.764Z,4.30
2022-11-26T06:03:22.066Z,4.20
2022-11-26T06:05:50.385Z,4.20
2022-11-26T06:08:18.562Z,4.20
2022-11-26T06:10:48.140Z,4.20
2022-11-26T06:13:16.427Z,4.20
2022-11-26T06:15:44.679Z,4.20
2022-11-26T06:18:12.900Z,4.30
2022-11-26T06:20:41.398Z,4.30
2022-11-26T06:23:09.585Z,4.20
2022-11-26T06:25:37.840Z,4.20
2022-11-26T06:28:07.593Z,4.20
2022-11-26T06:30:35.936Z,4.20
2022-11-26T06:33:04.942Z,4.20
2022-11-26T06:35:33.164Z,4.30
2022-11-26T06:38:01.346Z,4.20
2022-11-26T06:40:29.716Z,4.30
2022-11-26T06:42:57.951Z,4.30
2022-11-26T06:45:27.662Z,4.30
2022-11-26T06:47:55.915Z,4.40
2022-11-26T06:50:24.760Z,4.40
2022-11-26T06:52:53.571Z,4.40
2022-11-26T06:55:22.001Z,4.40
2022-11-26T06:57:51.339Z,4.60
2022-11-26T07:00:20.297Z,4.50
2022-11-26T07:02:50.202Z,4.50
2022-11-26T07:05:18.598Z,4.40
2022-11-26T07:07:46.850Z,4.50
2022-11-26T07:10:15.200Z,4.40
2022-11-26T07:12:43.507Z,4.40
2022-11-26T07:15:13.280Z,4.40
2022-11-26T07:17:41.481Z,4.30
2022-11-26T07:20:12.364Z,4.30
2022-11-26T07:22:40.580Z,4.30
2022-11-26T07:25:12.534Z,4.30
2022-11-26T07:27:42.128Z,4.30
2022-11-26T07:30:11.273Z,4.30
2022-11-26T07:32:39.481Z,4.30
2022-11-26T07:35:08.236Z,4.30
2022-11-26T07:37:37.825Z,4.30
2022-11-26T07:40:07.379Z,4.30
2022-11-26T07:42:35.736Z,4.30
2022-11-26T07:45:04.863Z,4.20
2022-11-26T07:47:33.147Z,4.20
2022-11-26T07:50:01.564Z,4.20
2022-11-26T07:52:29.778Z,4.20
2022-11-26T07:54:59.531Z,4.20
2022-11-26T07:57:27.735Z,4.20
2022-11-26T07:59:55.993Z,4.20
2022-11-26T08:02:24.282Z,4.30
2022-11-26T08:04:52.470Z,4.30
2022-11-26T08:07:26.089Z,4.30
2022-11-26T08:09:57.210Z,4.30
2022-11-26T08:12:27.220Z,4.40
2022-11-26T08:14:55.555Z,4.50
2022-11-26T08:17:23.711Z,4.60
2022-11-26T08:19:51.913Z,4.70
2022-11-26T08:22:20.307Z,4.70
2022-11-26T08:24:48.552Z,4.80
2022-11-26T08:27:17.257Z,4.90
2022-11-26T08:29:46.892Z,4.90
2022-11-26T08:32:15.555Z,5.00
2022-11-26T08:34:43.867Z,5.10
2022-11-26T08:37:12.117Z,5.10
2022-11-26T08:39:40.802Z,5.20
2022-11-26T08:42:08.962Z,5.30
2022-11-26T08:44:37.336Z,5.40
2022-11-26T08:47:07.152Z,5.50
2022-11-26T08:49:35.595Z,5.60
2022-11-26T08:52:05.061Z,5.80
2022-11-26T08:54:33.380Z,5.90
2022-11-26T08:57:01.748Z,5.90
2022-11-26T08:59:29.950Z,6.00
2022-11-26T09:01:58.224Z,6.00
2022-11-26T09:04:27.969Z,6.20
2022-11-26T09:06:56.347Z,6.20
2022-11-26T09:09:24.505Z,6.30
2022-11-26T09:11:55.083Z,6.40
2022-11-26T09:14:25.904Z,6.60
2022-11-26T09:16:54.999Z,6.70
2022-11-26T09:19:23.948Z,6.80
2022-11-26T09:21:53.541Z,6.90
2022-11-26T09:24:26.465Z,7.00
2022-11-26T09:26:55.060Z,7.10
2022-11-26T09:29:24.725Z,7.20
2022-11-26T09:32:23.451Z,7.30
2022-11-26T09:34:41.993Z,7.30
2022-11-26T09:37:11.773Z,7.40
2022-11-26T09:39:39.966Z,7.40
2022-11-26T09:42:09.374Z,7.50
2022-11-26T09:45:00.463Z,7.50
2022-11-26T09:47:34.682Z,7.60
2022-11-26T09:50:17.741Z,7.70
2022-11-26T09:52:54.254Z,7.80
2022-11-26T09:55:26.541Z,7.80
2022-11-26T09:58:03.541Z,7.90
2022-11-26T10:00:34.754Z,7.90
2022-11-26T10:03:03.069Z,8.00
2022-11-26T10:05:42.280Z,8.10
2022-11-26T10:08:30.804Z,8.10
2022-11-26T10:11:04.998Z,8.20
2022-11-26T10:13:43.034Z,8.30
2022-11-26T10:16:21.754Z,8.30
2022-11-26T10:19:04.221Z,8.40
2022-11-26T10:21:58.034Z,8.40
2022-11-26T10:24:31.836Z,8.50
2022-11-26T10:27:03.010Z,8.50
2022-11-26T10:29:38.384Z,8.50
2022-11-26T10:32:15.593Z,8.60
2022-11-26T10:34:50.971Z,8.60
2022-11-26T10:37:20.314Z,8.60
2022-11-26T10:39:55.420Z,8.70
2022-11-26T10:42:26.834Z,8.70
2022-11-26T10:44:55.723Z,8.80
2022-11-26T10:47:29.363Z,8.80
2022-11-26T10:50:39.559Z,8.80
2022-11-26T10:53:06.626Z,8.90
2022-11-26T10:55:40.422Z,8.90
2022-11-26T10:58:17.737Z,8.90
2022-11-26T11:00:55.344Z,9.00
2022-11-26T11:03:59.327Z,9.00
2022-11-26T11:06:28.331Z,9.00
2022-11-26T11:08:58.510Z,9.20
2022-11-26T11:11:30.651Z,9.20
2022-11-26T11:13:59.045Z,9.20
2022-11-26T11:16:30.044Z,9.20
2022-11-26T11:19:00.001Z,9.30
2022-11-26T11:21:34.370Z,9.40
2022-11-26T11:24:17.502Z,9.40
2022-11-26T11:26:48.315Z,9.50
2022-11-26T11:29:34.129Z,9.50
2022-11-26T11:32:05.034Z,9.60
2022-11-26T11:34:35.211Z,9.60
2022-11-26T11:37:05.604Z,9.60
2022-11-26T11:39:35.894Z,9.60
2022-11-26T11:42:08.887Z,9.70
2022-11-26T11:44:40.603Z,9.70
2022-11-26T11:47:35.571Z,9.70
2022-11-26T11:50:19.982Z,9.80
2022-11-26T11:52:57.844Z,9.80
2022-11-26T11:55:37.935Z,9.90
2022-11-26T11:58:27.258Z,9.90
2022-11-26T12:01:02.958Z,10.00
2022-11-26T12:03:52.498Z,10.00
2022-11-26T12:06:31.898Z,10.10
2022-11-26T12:09:08.923Z,10.10
2022-11-26T12:11:48.101Z,10.10
2022-11-26T12:14:23.486Z,10.10
2022-11-26T12:16:58.260Z,10.00
2022-11-26T12:19:35.662Z,10.10
2022-11-26T12:22:11.717Z,10.00
2022-11-26T12:24:45.744Z,10.00
2022-11-26T12:27:25.246Z,10.10
2022-11-26T12:29:59.664Z,10.10
2022-11-26T12:32:35.325Z,10.20
2022-11-26T12:35:08.481Z,10.20
2022-11-26T12:37:41.095Z,10.20
2022-11-26T12:40:20.520Z,10.30
2022-11-26T12:42:57.069Z,10.30
2022-11-26T12:45:46.111Z,10.30
2022-11-26T12:48:25.442Z,10.40
2022-11-26T12:50:57.081Z,10.40
2022-11-26T12:53:35.202Z,10.40
2022-11-26T12:56:12.959Z,10.40
2022-11-26T12:58:48.630Z,10.50
2022-11-26T13:01:18.719Z,10.50
2022-11-26T13:03:47.056Z,10.50
2022-11-26T13:06:27.207Z,10.60
2022-11-26T13:09:03.985Z,10.60
2022-11-26T13:11:41.422Z,10.60
2022-11-26T13:14:18.757Z,10.60
2022-11-26T13:16:55.017Z,10.60
2022-11-26T13:19:32.277Z,10.50
2022-11-26T13:22:28.054Z,10.50
2022-11-26T13:25:09.980Z,10.50
2022-11-26T13:27:50.909Z,10.40
2022-11-26T13:30:22.799Z,10.40
2022-11-26T13:33:25.468Z,10.40
2022-11-26T13:36:24.174Z,10.30
2022-11-26T13:39:05.541Z,10.30
2022-11-26T13:42:00.363Z,10.30
2022-11-26T13:45:13.109Z,10.30
2022-11-26T13:47:44.818Z,10.30
2022-11-26T13:50:18.671Z,10.30
2022-11-26T13:52:52.158Z,10.30
2022-11-26T13:55:24.457Z,10.30
2022-11-26T13:57:56.036Z,10.20
2022-11-26T14:00:29.799Z,10.30
2022-11-26T14:02:59.261Z,10.30
2022-11-26T14:06:08.269Z,10.20
2022-11-26T14:08:38.561Z,10.20
2022-11-26T14:11:07.442Z,10.20
2022-11-26T14:13:35.756Z,10.10
2022-11-26T14:16:06.711Z,10.10
2022-11-26T14:19:00.636Z,10.10
2022-11-26T14:21:31.653Z,10.00
2022-11-26T14:24:02.728Z,10.10
2022-11-26T14:26:34.641Z,10.00
2022-11-26T14:29:13.436Z,10.10
2022-11-26T14:31:49.812Z,10.00
2022-11-26T14:34:23.586Z,10.00
2022-11-26T14:36:59.791Z,10.00
2022-11-26T14:39:29.448Z,10.00
2022-11-26T14:42:05.251Z,10.00
2022-11-26T14:44:34.633Z,9.90
2022-11-26T14:47:11.806Z,9.90
2022-11-26T14:49:42.111Z,9.90
2022-11-26T14:52:20.612Z,9.90
2022-11-26T14:54:52.570Z,9.80
2022-11-26T14:57:25.538Z,9.90
2022-11-26T14:59:58.282Z,9.80
2022-11-26T15:02:28.709Z,9.70
2022-11-26T15:05:02.030Z,9.80
2022-11-26T15:07:33.333Z,9.70
2022-11-26T15:10:03.297Z,9.70
2022-11-26T15:12:32.306Z,9.80
2022-11-26T15:15:02.838Z,9.70
2022-11-26T15:17:33.559Z,9.70
2022-11-26T15:20:05.398Z,9.70
2022-11-26T15:22:38.418Z,9.60
2022-11-26T15:25:13.722Z,9.60
2022-11-26T15:28:00.280Z,9.60
2022-11-26T15:30:30.389Z,9.60
2022-11-26T15:33:00.740Z,9.50
2022-11-26T15:35:30.163Z,9.50
2022-11-26T15:37:59.947Z,9.40
2022-11-26T15:40:32.801Z,9.40
2022-11-26T15:43:04.291Z,9.30
2022-11-26T15:45:39.119Z,9.20
2022-11-26T15:48:27.155Z,9.20
2022-11-26T15:50:58.241Z,9.20
2022-11-26T15:53:30.849Z,9.10
2022-11-26T15:55:59.378Z,9.10
2022-11-26T15:58:30.091Z,9.00
2022-11-26T16:01:01.313Z,9.10
2022-11-26T16:03:43.642Z,9.00
2022-11-26T16:06:31.913Z,9.10
2022-11-26T16:09:08.345Z,9.00
2022-11-26T16:11:38.533Z,9.00
2022-11-26T16:14:34.598Z,8.90
2022-11-26T16:17:08.525Z,8.90
2022-11-26T16:19:38.572Z,8.90
2022-11-26T16:22:07.587Z,8.90
2022-11-26T16:24:40.909Z,8.90
2022-11-26T16:27:26.262Z,8.90
2022-11-26T16:29:54.505Z,8.90
2022-11-26T16:32:22.834Z,8.90
2022-11-26T16:34:51.140Z,9.00
2022-11-26T16:37:22.794Z,9.00
2022-11-26T16:39:54.025Z,9.00
2022-11-26T16:42:23.816Z,9.00
2022-11-26T16:44:52.370Z,9.00
2022-11-26T16:47:27.151Z,8.90
2022-11-26T16:49:55.683Z,8.90
2022-11-26T16:52:24.187Z,8.90
2022-11-26T16:54:53.795Z,8.90
2022-11-26T16:57:24.025Z,8.90
2022-11-26T17:00:02.351Z,8.90
2022-11-26T17:02:32.441Z,8.90
2022-11-26T17:05:00.737Z,8.90
2022-11-26T17:07:32.877Z,8.80
2022-11-26T17:10:04.273Z,8.80
2022-11-26T17:12:32.588Z,8.70
2022-11-26T17:15:00.763Z,8.80
2022-11-26T17:17:30.428Z,8.70
2022-11-26T17:19:58.670Z,8.60
2022-11-26T17:22:27.042Z,8.60
2022-11-26T17:24:55.266Z,8.60
2022-11-26T17:27:24.865Z,8.60
2022-11-26T17:29:53.128Z,8.50
2022-11-26T17:32:21.658Z,8.40
2022-11-26T17:34:49.996Z,8.30
2022-11-26T17:37:26.103Z,8.30
2022-11-26T17:39:54.750Z,8.20
2022-11-26T17:42:24.769Z,8.20
2022-11-26T17:44:54.190Z,8.10
2022-11-26T17:47:25.226Z,8.10
2022-11-26T17:49:54.445Z,8.00
2022-11-26T17:52:22.929Z,8.10
2022-11-26T17:54:51.221Z,8.10
2022-11-26T17:57:20.265Z,8.00
2022-11-26T17:59:49.917Z,8.00
2022-11-26T18:02:18.199Z,8.00
2022-11-26T18:04:46.773Z,7.90
2022-11-26T18:07:17.758Z,7.90
2022-11-26T18:09:46.537Z,7.80
2022-11-26T18:12:25.286Z,7.80
2022-11-26T18:14:56.787Z,7.70
2022-11-26T18:17:25.490Z,7.60
2022-11-26T18:19:53.783Z,7.60
2022-11-26T18:22:23.643Z,7.60
2022-11-26T18:24:56.795Z,7.50
2022-11-26T18:27:27.721Z,7.40
2022-11-26T18:29:57.355Z,7.40
2022-11-26T18:32:25.553Z,7.40
2022-11-26T18:34:54.263Z,7.30
2022-11-26T18:37:22.500Z,7.30
2022-11-26T18:39:50.707Z,7.20
2022-11-26T18:45:11.738Z,7.20
2022-11-26T18:47:40.216Z,7.10
2022-11-26T18:50:09.493Z,7.10
2022-11-26T18:52:37.851Z,7.00
2022-11-26T18:55:08.318Z,7.00
2022-11-26T18:57:36.704Z,6.90
2022-11-26T19:00:06.937Z,6.90
2022-11-26T19:02:37.013Z,6.90
2022-11-26T19:05:06.007Z,6.90
2022-11-26T19:07:34.469Z,6.90
2022-11-26T19:10:04.202Z,6.80
2022-11-26T19:12:32.401Z,6.80
2022-11-26T19:15:00.639Z,6.70
2022-11-26T19:17:30.010Z,6.80
2022-11-26T19:19:59.576Z,6.70
2022-11-26T19:22:27.887Z,6.70
2022-11-26T19:24:56.156Z,6.60
2022-11-26T19:27:24.470Z,6.60
2022-11-26T19:29:53.011Z,6.60
2022-11-26T19:32:21.309Z,6.60
2022-11-26T19:34:49.641Z,6.50
2022-11-26T19:37:19.236Z,6.60
2022-11-26T19:39:48.148Z,6.50
2022-11-26T19:42:16.405Z,6.40
2022-11-26T19:44:44.682Z,6.30
2022-11-26T19:47:12.927Z,6.30
2022-11-26T19:49:41.376Z,6.40
2022-11-26T19:52:09.865Z,6.30
2022-11-26T19:54:39.515Z,6.30
2022-11-26T19:57:08.248Z,6.30
2022-11-26T19:59:36.789Z,6.30
2022-11-26T20:02:05.369Z,6.20
2022-11-26T20:04:33.589Z,6.20
2022-11-26T20:07:03.011Z,6.10
2022-11-26T20:09:31.206Z,6.10
2022-11-26T20:12:00.826Z,6.10
2022-11-26T20:14:31.692Z,6.00
2022-11-26T20:17:01.342Z,5.90
2022-11-26T20:19:29.848Z,5.90
2022-11-26T20:21:58.133Z,6.00
2022-11-26T20:24:26.379Z,5.90
2022-11-26T20:26:54.638Z,6.00
2022-11-26T20:29:25.215Z,5.90
2022-11-26T20:31:54.318Z,5.90
2022-11-26T20:34:23.941Z,5.80
2022-11-26T20:36:52.342Z,5.80
2022-11-26T20:39:22.658Z,5.80
2022-11-26T20:41:51.130Z,5.80
2022-11-26T20:44:19.521Z,5.80
2022-11-26T20:46:49.126Z,5.90
2022-11-26T20:49:17.367Z,5.90
2022-11-26T20:51:45.577Z,5.80
2022-11-26T20:54:13.854Z,5.80
2022-11-26T20:56:42.131Z,5.80
2022-11-26T20:59:10.406Z,5.90
2022-11-26T21:01:39.269Z,6.00
2022-11-26T21:04:08.944Z,6.10
2022-11-26T21:06:37.517Z,6.00
2022-11-26T21:09:07.267Z,6.10
2022-11-26T21:11:36.560Z,6.10
2022-11-26T21:14:07.547Z,6.10
2022-11-26T21:16:38.990Z,6.20
2022-11-26T21:19:11.309Z,6.20
2022-11-26T21:21:39.602Z,6.30
2022-11-26T21:24:08.671Z,6.30
2022-11-26T21:26:37.273Z,6.40
2022-11-26T21:29:05.481Z,6.40
2022-11-26T21:31:33.736Z,6.40
2022-11-26T21:34:03.631Z,6.40
2022-11-26T21:36:35.211Z,6.40
2022-11-26T21:39:04.349Z,6.50
2022-11-26T21:41:33.536Z,6.50
2022-11-26T21:44:04.117Z,6.50
2022-11-26T21:46:37.789Z,6.50
2022-11-26T21:49:06.629Z,6.60
2022-11-26T21:51:36.341Z,6.60
2022-11-26T21:54:04.692Z,6.60
2022-11-26T21:56:33.634Z,6.60
2022-11-26T21:59:02.735Z,6.60
2022-11-26T22:01:33.199Z,6.60
2022-11-26T22:04:03.645Z,6.70
2022-11-26T22:06:32.064Z,6.70
2022-11-26T22:09:01.971Z,6.60
2022-11-26T22:11:32.539Z,6.60
2022-11-26T22:14:00.947Z,6.60
2022-11-26T22:16:30.792Z,6.70
2022-11-26T22:19:00.356Z,6.70
2022-11-26T22:21:30.748Z,6.70
2022-11-26T22:24:02.023Z,6.70
2022-11-26T22:26:31.397Z,6.60
2022-11-26T22:29:00.010Z,6.60
2022-11-26T22:31:31.345Z,6.70
2022-11-26T22:34:01.485Z,6.60
2022-11-26T22:36:29.925Z,6.70
2022-11-26T22:38:58.758Z,6.60
2022-11-26T22:41:28.415Z,6.70
2022-11-26T22:43:56.865Z,6.60
2022-11-26T22:46:25.477Z,6.60
2022-11-26T22:48:55.426Z,6.70
2022-11-26T22:51:24.379Z,6.70
2022-11-26T22:53:53.251Z,6.60
2022-11-26T22:56:22.283Z,6.60
2022-11-26T22:58:52.015Z,6.60
2022-11-26T23:01:22.039Z,6.60
2022-11-26T23:03:50.861Z,6.60
2022-11-26T23:06:21.231Z,6.60
2022-11-26T23:08:50.086Z,6.50
2022-11-26T23:11:21.184Z,6.40
2022-11-26T23:13:52.146Z,6.40
2022-11-26T23:16:22.709Z,6.40
2022-11-26T23:18:51.143Z,6.30
2022-11-26T23:21:21.180Z,6.30
2022-11-26T23:23:50.375Z,6.20
2022-11-26T23:26:26.156Z,6.20
2022-11-26T23:28:56.737Z,6.10
2022-11-26T23:31:27.869Z,6.00
2022-11-26T23:33:56.399Z,5.90
2022-11-26T23:36:25.072Z,5.90
2022-11-26T23:38:53.476Z,5.80
2022-11-26T23:41:21.753Z,5.80
2022-11-26T23:43:50.067Z,5.80
2022-11-26T23:46:21.585Z,5.80
2022-11-26T23:48:50.770Z,5.70
2022-11-26T23:51:20.857Z,5.70
2022-11-26T23:53:50.354Z,5.70
2022-11-26T23:56:22.853Z,5.70
2022-11-26T23:58:51.707Z,5.70
